Time;durP1;ratioP1;P1;durP2;ratioP2;P2;SDS_P1;SDS_P2;PMS_P1;PMS_P2;Temp;Humidity;BMP_temperature;BMP_pressure;BME280_temperature;BME280_humidity;BME280_pressure;Samples;Min_cycle;Max_cycle;Signal;HPM_P1;HPM_P2
2022/11/23 00:00:20;;;;;;;;;;;;;;;;;;4902593;29;19917;-85
2022/11/23 00:03:06;;;;;;;;;;;;;;;;;;4906945;29;19920;-84
2022/11/23 00:05:53;;;;;;;;;;;;;;;;;;4906206;29;19931;-84
2022/11/23 00:08:39;;;;;;;;;;;;;;;;;;4921920;29;19923;-84
2022/11/23 00:11:26;;;;;;;;;;;;;;;;;;4909270;29;19926;-84
2022/11/23 00:14:12;;;;;;;;;;;;;;;;;;4911961;29;19983;-84
2022/11/23 00:16:59;;;;;;;;;;;;;;;;;;4907521;29;19931;-84
2022/11/23 00:19:45;;;;;;;;;;;;;;;;;;4906296;29;19933;-84
2022/11/23 00:22:32;;;;;;;;;;;;;;;;;;4910020;29;20390;-84
2022/11/23 00:25:18;;;;;;;;;;;;;;;;;;4904119;29;19915;-84
2022/11/23 00:28:05;;;;;;;;;;;;;;;;;;4911996;29;19915;-85
2022/11/23 00:30:51;;;;;;;;;;;;;;;;;;4910567;29;19915;-84
2022/11/23 00:33:38;;;;;;;;;;;;;;;;;;4908076;29;20372;-84
2022/11/23 00:36:24;;;;;;;;;;;;;;;;;;4905314;29;19948;-86
2022/11/23 00:39:11;;;;;;;;;;;;;;;;;;4909627;29;19911;-86
2022/11/23 00:41:57;;;;;;;;;;;;;;;;;;4909812;29;19915;-86
2022/11/23 00:44:43;;;;;;;;;;;;;;;;;;4905444;29;19920;-84
2022/11/23 00:47:30;;;;;;;;;;;;;;;;;;4914174;29;20467;-85
2022/11/23 00:50:16;;;;;;;;;;;;;;;;;;4910920;29;19916;-84
2022/11/23 00:53:03;;;;;;;;;;;;;;;;;;4911404;29;19918;-84
2022/11/23 00:55:49;;;;;;;;;;;;;;;;;;4907775;29;19926;-86
2022/11/23 00:58:37;;;;;;;;;;;;;;;;;;4915306;29;19915;-86
2022/11/23 01:01:24;;;;;;;;;;;;;;;;;;4902019;29;19942;-86
2022/11/23 01:04:10;;;;;;;;;;;;;;;;;;4904295;29;19918;-86
2022/11/23 01:06:57;;;;;;;;;;;;;;;;;;4901035;29;19923;-85
2022/11/23 01:09:43;;;;;;;;;;;;;;;;;;4898033;29;19919;-85
2022/11/23 01:12:30;;;;;;;;;;;;;;;;;;4900781;29;20360;-85
2022/11/23 01:15:16;;;;;;;;;;;;;;;;;;4898600;29;19923;-83
2022/11/23 01:18:02;;;;;;;;;;;;;;;;;;4886137;29;19930;-83
2022/11/23 01:20:49;;;;;;;;;;;;;;;;;;4905510;29;19942;-83
2022/11/23 01:23:36;;;;;;;;;;;;;;;;;;4895394;29;19918;-84
2022/11/23 01:26:22;;;;;;;;;;;;;;;;;;4888974;29;19930;-83
2022/11/23 01:29:09;;;;;;;;;;;;;;;;;;4893903;29;20233;-82
2022/11/23 01:31:55;;;;;;;;;;;;;;;;;;4893691;29;19911;-83
2022/11/23 01:34:42;;;;;;;;;;;;;;;;;;4898858;29;19917;-84
2022/11/23 01:37:28;;;;;;;;;;;;;;;;;;4900116;29;20390;-83
2022/11/23 01:40:15;;;;;;;;;;;;;;;;;;4890172;29;19942;-84
2022/11/23 01:43:01;;;;;;;;;;;;;;;;;;4912821;29;19934;-84
2022/11/23 01:45:48;;;;;;;;;;;;;;;;;;4895249;29;19915;-84
2022/11/23 01:48:34;;;;;;;;;;;;;;;;;;4883553;29;19912;-84
2022/11/23 01:51:21;;;;;;;;;;;;;;;;;;4899376;29;19911;-83
2022/11/23 01:54:07;;;;;;;;;;;;;;;;;;4882863;29;20260;-83
2022/11/23 01:56:54;;;;;;;;;;;;;;;;;;4896203;29;19927;-83
2022/11/23 01:59:40;;;;;;;;;;;;;;;;;;4884244;29;19915;-84
2022/11/23 02:02:27;;;;;;;;;;;;;;;;;;4888688;29;19915;-83
2022/11/23 02:05:13;;;;;;;;;;;;;;;;;;4894852;29;19933;-83
2022/11/23 02:08:00;;;;;;;;;;;;;;;;;;4912511;29;19919;-83
2022/11/23 02:10:46;;;;;;;;;;;;;;;;;;4910573;29;19911;-84
2022/11/23 02:13:32;;;;;;;;;;;;;;;;;;4908350;29;19926;-84
2022/11/23 02:16:19;;;;;;;;;;;;;;;;;;4906147;29;19946;-84
2022/11/23 02:19:05;;;;;;;;;;;;;;;;;;4900946;29;20032;-84
2022/11/23 02:21:52;;;;;;;;;;;;;;;;;;4900392;29;19915;-84
2022/11/23 02:24:38;;;;;;;;;;;;;;;;;;4912034;29;19915;-84
2022/11/23 02:27:25;;;;;;;;;;;;;;;;;;4911583;29;19918;-85
2022/11/23 02:30:11;;;;;;;;;;;;;;;;;;4911313;29;19915;-84
2022/11/23 02:32:58;;;;;;;;;;;;;;;;;;4906384;29;19911;-84
2022/11/23 02:35:44;;;;;;;;;;;;;;;;;;4903255;29;19919;-84
2022/11/23 02:38:31;;;;;;;;;;;;;;;;;;4908837;29;19920;-84
2022/11/23 02:41:18;;;;;;;;;;;;;;;;;;4919138;29;19917;-86
2022/11/23 02:44:04;;;;;;;;;;;;;;;;;;4910041;29;19919;-85
2022/11/23 02:46:51;;;;;;;;;;;;;;;;;;4908162;29;19911;-83
2022/11/23 02:49:37;;;;;;;;;;;;;;;;;;4903937;29;19915;-84
2022/11/23 02:52:23;;;;;;;;;;;;;;;;;;4905150;29;20376;-84
2022/11/23 02:55:10;;;;;;;;;;;;;;;;;;4909127;29;19912;-83
2022/11/23 02:57:56;;;;;;;;;;;;;;;;;;4895149;29;19924;-82
2022/11/23 03:00:43;;;;;;;;;;;;;;;;;;4903176;29;19921;-83
2022/11/23 03:03:29;;;;;;;;;;;;;;;;;;4900769;29;19915;-83
2022/11/23 03:06:16;;;;;;;;;;;;;;;;;;4911713;29;19923;-83
2022/11/23 03:09:02;;;;;;;;;;;;;;;;;;4894675;29;19918;-85
2022/11/23 03:11:49;;;;;;;;;;;;;;;;;;4909824;29;19922;-86
2022/11/23 03:14:37;;;;;;;;;;;;;;;;;;4910712;29;20392;-85
2022/11/23 03:17:24;;;;;;;;;;;;;;;;;;4909686;29;19939;-86
2022/11/23 03:20:10;;;;;;;;;;;;;;;;;;4893647;29;19991;-86
2022/11/23 03:22:57;;;;;;;;;;;;;;;;;;4906010;29;19933;-86
2022/11/23 03:25:43;;;;;;;;;;;;;;;;;;4903990;29;19924;-85
2022/11/23 03:28:29;;;;;;;;;;;;;;;;;;4908557;29;19911;-84
2022/11/23 03:31:16;;;;;;;;;;;;;;;;;;4901438;29;20372;-85
2022/11/23 03:34:02;;;;;;;;;;;;;;;;;;4894409;29;19912;-85
2022/11/23 03:36:49;;;;;;;;;;;;;;;;;;4904128;29;19934;-86
2022/11/23 03:39:35;;;;;;;;;;;;;;;;;;4908303;29;20335;-85
2022/11/23 03:42:22;;;;;;;;;;;;;;;;;;4901707;29;19915;-84
2022/11/23 03:45:08;;;;;;;;;;;;;;;;;;4909331;29;19915;-85
2022/11/23 03:47:55;;;;;;;;;;;;;;;;;;4897783;29;19918;-84
2022/11/23 03:50:41;;;;;;;;;;;;;;;;;;4908830;29;19918;-84
2022/11/23 03:53:28;;;;;;;;;;;;;;;;;;4902363;29;20303;-83
2022/11/23 03:56:14;;;;;;;;;;;;;;;;;;4903099;29;19919;-85
2022/11/23 03:59:01;;;;;;;;;;;;;;;;;;4906780;29;20001;-84
2022/11/23 04:01:47;;;;;;;;;;;;;;;;;;4906792;29;20006;-84
2022/11/23 04:04:34;;;;;;;;;;;;;;;;;;4904865;29;19928;-84
2022/11/23 04:07:21;;;;;;;;;;;;;;;;;;4901260;29;20390;-86
2022/11/23 04:10:07;;;;;;;;;;;;;;;;;;4892222;29;19918;-86
2022/11/23 04:12:54;;;;;;;;;;;;;;;;;;4889627;29;19929;-86
2022/11/23 04:15:40;;;;;;;;;;;;;;;;;;4897708;29;19917;-86
2022/11/23 04:18:26;;;;;;;;;;;;;;;;;;4898814;29;19923;-86
2022/11/23 04:21:13;;;;;;;;;;;;;;;;;;4892054;29;19912;-86
2022/11/23 04:23:59;;;;;;;;;;;;;;;;;;4900905;29;20290;-86
2022/11/23 04:26:46;;;;;;;;;;;;;;;;;;4910822;29;19926;-85
2022/11/23 04:29:32;;;;;;;;;;;;;;;;;;4893536;29;19919;-86
2022/11/23 04:32:19;;;;;;;;;;;;;;;;;;4893869;29;19920;-83
2022/11/23 04:35:05;;;;;;;;;;;;;;;;;;4894595;29;19921;-83
2022/11/23 04:37:52;;;;;;;;;;;;;;;;;;4902224;29;20409;-83
2022/11/23 04:40:38;;;;;;;;;;;;;;;;;;4905520;29;19984;-83
2022/11/23 04:43:25;;;;;;;;;;;;;;;;;;4890744;29;19922;-83
2022/11/23 04:46:11;;;;;;;;;;;;;;;;;;4901011;29;19927;-86
2022/11/23 04:48:59;;;;;;;;;;;;;;;;;;4893541;29;19917;-86
2022/11/23 04:51:45;;;;;;;;;;;;;;;;;;4909004;29;19917;-84
2022/11/23 04:54:32;;;;;;;;;;;;;;;;;;4897716;29;20322;-82
2022/11/23 04:57:18;;;;;;;;;;;;;;;;;;4890369;29;19923;-81
2022/11/23 05:00:05;;;;;;;;;;;;;;;;;;4905773;29;20000;-81
2022/11/23 05:02:51;;;;;;;;;;;;;;;;;;4903877;29;19912;-83
2022/11/23 05:05:38;;;;;;;;;;;;;;;;;;4896256;29;19930;-83
2022/11/23 05:08:24;;;;;;;;;;;;;;;;;;4916058;29;19923;-83
2022/11/23 05:11:11;;;;;;;;;;;;;;;;;;4907298;29;19911;-81
2022/11/23 05:13:57;;;;;;;;;;;;;;;;;;4907209;29;20021;-83
2022/11/23 05:16:44;;;;;;;;;;;;;;;;;;4907076;29;19953;-82
2022/11/23 05:19:30;;;;;;;;;;;;;;;;;;4901400;29;19919;-83
2022/11/23 05:22:17;;;;;;;;;;;;;;;;;;4906256;29;19911;-83
2022/11/23 05:25:03;;;;;;;;;;;;;;;;;;4903208;29;19911;-82
2022/11/23 05:27:49;;;;;;;;;;;;;;;;;;4908766;29;20190;-83
2022/11/23 05:30:36;;;;;;;;;;;;;;;;;;4902687;29;19915;-82
2022/11/23 05:33:22;;;;;;;;;;;;;;;;;;4910764;29;19915;-79
2022/11/23 05:36:12;;;;;;;;;;;;;;;;;;4910153;29;19923;-80
2022/11/23 05:38:59;;;;;;;;;;;;;;;;;;4901571;29;19954;-80
2022/11/23 05:41:45;;;;;;;;;;;;;;;;;;4907277;29;20318;-80
2022/11/23 05:44:32;;;;;;;;;;;;;;;;;;4903498;29;19927;-80
2022/11/23 05:47:18;;;;;;;;;;;;;;;;;;4898728;29;19911;-80
2022/11/23 05:50:04;;;;;;;;;;;;;;;;;;4911333;29;20350;-80
2022/11/23 05:52:51;;;;;;;;;;;;;;;;;;4898379;29;19918;-80
2022/11/23 05:55:37;;;;;;;;;;;;;;;;;;4908001;29;20295;-80
2022/11/23 05:58:24;;;;;;;;;;;;;;;;;;4904525;29;19934;-80
2022/11/23 06:01:10;;;;;;;;;;;;;;;;;;4895621;29;19911;-79
2022/11/23 06:03:57;;;;;;;;;;;;;;;;;;4901610;29;19922;-79
2022/11/23 06:06:43;;;;;;;;;;;;;;;;;;4903569;29;19930;-82
2022/11/23 06:09:30;;;;;;;;;;;;;;;;;;4911887;29;19911;-83
2022/11/23 06:12:16;;;;;;;;;;;;;;;;;;4898262;29;19915;-82
2022/11/23 06:15:03;;;;;;;;;;;;;;;;;;4905672;29;20300;-81
2022/11/23 06:17:49;;;;;;;;;;;;;;;;;;4905683;29;19931;-81
2022/11/23 06:20:36;;;;;;;;;;;;;;;;;;4904540;29;19918;-80
2022/11/23 06:23:23;;;;;;;;;;;;;;;;;;4909138;29;19937;-80
2022/11/23 06:26:10;;;;;;;;;;;;;;;;;;4907838;29;19922;-81
2022/11/23 06:28:56;;;;;;;;;;;;;;;;;;4902478;29;19911;-81
2022/11/23 06:31:43;;;;;;;;;;;;;;;;;;4897136;29;19918;-82
2022/11/23 06:34:29;;;;;;;;;;;;;;;;;;4912208;29;20343;-81
2022/11/23 06:37:16;;;;;;;;;;;;;;;;;;4909625;29;19919;-81
2022/11/23 06:40:02;;;;;;;;;;;;;;;;;;4907467;29;20000;-82
2022/11/23 06:42:49;;;;;;;;;;;;;;;;;;4913507;29;20299;-82
2022/11/23 06:45:35;;;;;;;;;;;;;;;;;;4910456;29;19937;-82
2022/11/23 06:48:22;;;;;;;;;;;;;;;;;;4909901;29;19918;-82
2022/11/23 06:51:08;;;;;;;;;;;;;;;;;;4899243;29;19912;-81
2022/11/23 06:53:55;;;;;;;;;;;;;;;;;;4909890;29;19922;-82
2022/11/23 06:56:41;;;;;;;;;;;;;;;;;;4902346;29;19915;-81
2022/11/23 06:59:28;;;;;;;;;;;;;;;;;;4910612;29;19931;-82
2022/11/23 07:02:14;;;;;;;;;;;;;;;;;;4895602;29;19923;-82
2022/11/23 07:05:01;;;;;;;;;;;;;;;;;;4907630;29;19931;-81
2022/11/23 07:07:47;;;;;;;;;;;;;;;;;;4903286;29;19911;-81
2022/11/23 07:10:34;;;;;;;;;;;;;;;;;;4902604;29;20275;-81
2022/11/23 07:13:20;;;;;;;;;;;;;;;;;;4909447;29;19938;-80
2022/11/23 07:16:07;;;;;;;;;;;;;;;;;;4906841;29;19911;-81
2022/11/23 07:18:53;;;;;;;;;;;;;;;;;;4899977;29;20380;-81
2022/11/23 07:21:40;;;;;;;;;;;;;;;;;;4905494;29;19919;-81
2022/11/23 07:24:26;;;;;;;;;;;;;;;;;;4910070;29;19930;-81
2022/11/23 07:27:12;;;;;;;;;;;;;;;;;;4910250;29;20547;-81
2022/11/23 07:29:59;;;;;;;;;;;;;;;;;;4906148;29;19924;-81
2022/11/23 07:32:45;;;;;;;;;;;;;;;;;;4909186;29;20040;-84
2022/11/23 07:35:32;;;;;;;;;;;;;;;;;;4899809;29;19915;-83
2022/11/23 07:38:18;;;;;;;;;;;;;;;;;;4898648;29;20307;-83
2022/11/23 07:41:05;;;;;;;;;;;;;;;;;;4895708;29;19915;-82
2022/11/23 07:43:51;;;;;;;;;;;;;;;;;;4897026;29;20391;-82
2022/11/23 07:46:38;;;;;;;;;;;;;;;;;;4902219;29;19915;-84
2022/11/23 07:49:24;;;;;;;;;;;;;;;;;;4899937;29;19935;-90
2022/11/23 07:52:11;;;;;;;;;;;;;;;;;;4898983;29;19916;-89
2022/11/23 07:54:59;;;;;;;;;;;;;;;;;;4899040;29;19911;-89
2022/11/23 07:57:46;;;;;;;;;;;;;;;;;;4899527;29;19919;-88
2022/11/23 08:00:32;;;;;;;;;;;;;;;;;;4905073;29;19919;-88
2022/11/23 08:03:19;;;;;;;;;;;;;;;;;;4911011;29;19916;-88
2022/11/23 08:06:05;;;;;;;;;;;;;;;;;;4910510;29;19954;-89
2022/11/23 08:08:54;;;;;;;;;;;;;;;;;;4900621;29;19934;-89
2022/11/23 08:11:40;;;;;;;;;;;;;;;;;;4909895;29;19911;-89
2022/11/23 08:14:27;;;;;;;;;;;;;;;;;;4910057;29;19916;-90
2022/11/23 08:17:13;;;;;;;;;;;;;;;;;;4905794;29;20444;-89
2022/11/23 08:20:00;;;;;;;;;;;;;;;;;;4898278;29;19918;-88
2022/11/23 08:22:47;;;;;;;;;;;;;;;;;;4909810;29;19911;-89
2022/11/23 08:25:33;;;;;;;;;;;;;;;;;;4898946;29;19915;-88
2022/11/23 08:28:20;;;;;;;;;;;;;;;;;;4906681;29;19912;-88
2022/11/23 08:31:06;;;;;;;;;;;;;;;;;;4898932;29;19911;-89
2022/11/23 08:33:53;;;;;;;;;;;;;;;;;;4900007;29;19915;-89
2022/11/23 08:36:39;;;;;;;;;;;;;;;;;;4912260;29;19934;-89
2022/11/23 08:39:26;;;;;;;;;;;;;;;;;;4912555;29;19925;-88
2022/11/23 08:42:12;;;;;;;;;;;;;;;;;;4913366;29;20377;-88
2022/11/23 08:44:59;;;;;;;;;;;;;;;;;;4907745;29;20409;-88
2022/11/23 08:47:45;;;;;;;;;;;;;;;;;;4916599;29;20412;-89
2022/11/23 08:50:33;;;;;;;;;;;;;;;;;;4909593;29;20288;-88
2022/11/23 08:53:19;;;;;;;;;;;;;;;;;;4906489;29;19927;-88
2022/11/23 08:56:06;;;;;;;;;;;;;;;;;;4906129;29;19915;-88
2022/11/23 08:58:52;;;;;;;;;;;;;;;;;;4911024;29;19934;-88
2022/11/23 09:01:39;;;;;;;;;;;;;;;;;;4919252;29;19967;-89
2022/11/23 09:04:28;;;;;;;;;;;;;;;;;;4904642;29;19926;-89
2022/11/23 09:07:14;;;;;;;;;;;;;;;;;;4896264;29;19919;-88
2022/11/23 09:10:01;;;;;;;;;;;;;;;;;;4899250;29;19915;-88
2022/11/23 09:12:47;;;;;;;;;;;;;;;;;;4894064;29;19916;-89
2022/11/23 09:15:34;;;;;;;;;;;;;;;;;;4885755;29;19923;-87
2022/11/23 09:18:20;;;;;;;;;;;;;;;;;;4898950;29;19923;-88
2022/11/23 09:21:07;;;;;;;;;;;;;;;;;;4893536;29;19921;-87
2022/11/23 09:23:53;;;;;;;;;;;;;;;;;;4900814;29;19911;-88
2022/11/23 09:26:40;;;;;;;;;;;;;;;;;;4888927;29;20374;-88
2022/11/23 09:29:27;;;;;;;;;;;;;;;;;;4899464;29;19918;-88
2022/11/23 09:32:13;;;;;;;;;;;;;;;;;;4899692;29;19915;-88
2022/11/23 09:35:00;;;;;;;;;;;;;;;;;;4884406;29;19911;-88
2022/11/23 09:37:46;;;;;;;;;;;;;;;;;;4912641;29;20343;-88
2022/11/23 09:40:33;;;;;;;;;;;;;;;;;;4895636;29;19912;-87
2022/11/23 09:43:19;;;;;;;;;;;;;;;;;;4890320;29;19922;-88
2022/11/23 09:46:06;;;;;;;;;;;;;;;;;;4892771;29;19920;-87
2022/11/23 09:48:52;;;;;;;;;;;;;;;;;;4888934;29;19911;-87
2022/11/23 09:51:39;;;;;;;;;;;;;;;;;;4885197;29;19926;-88
2022/11/23 09:54:25;;;;;;;;;;;;;;;;;;4897279;29;19915;-88
2022/11/23 09:57:12;;;;;;;;;;;;;;;;;;4897890;29;19926;-88
2022/11/23 09:59:58;;;;;;;;;;;;;;;;;;4898472;29;19930;-89
2022/11/23 10:02:45;;;;;;;;;;;;;;;;;;4886284;29;19938;-88
2022/11/23 10:05:31;;;;;;;;;;;;;;;;;;4894745;29;19939;-88
2022/11/23 10:08:18;;;;;;;;;;;;;;;;;;4902445;29;19923;-88
2022/11/23 10:11:04;;;;;;;;;;;;;;;;;;4913139;29;20014;-88
2022/11/23 10:13:51;;;;;;;;;;;;;;;;;;4896687;29;19923;-87
2022/11/23 10:16:38;;;;;;;;;;;;;;;;;;4910296;29;20375;-88
2022/11/23 10:19:24;;;;;;;;;;;;;;;;;;4901614;29;19923;-88
2022/11/23 10:22:11;;;;;;;;;;;;;;;;;;4903961;29;19911;-88
2022/11/23 10:24:57;;;;;;;;;;;;;;;;;;4906898;29;19922;-88
2022/11/23 10:27:44;;;;;;;;;;;;;;;;;;4905140;29;20284;-87
2022/11/23 10:30:30;;;;;;;;;;;;;;;;;;4900974;29;19915;-87
2022/11/23 10:33:17;;;;;;;;;;;;;;;;;;4909535;29;19920;-88
2022/11/23 10:36:03;;;;;;;;;;;;;;;;;;4915612;29;19911;-88
2022/11/23 10:38:50;;;;;;;;;;;;;;;;;;4900540;29;20434;-88
2022/11/23 10:41:36;;;;;;;;;;;;;;;;;;4901573;29;20561;-88
2022/11/23 10:44:23;;;;;;;;;;;;;;;;;;4896708;29;19912;-88
2022/11/23 10:47:09;;;;;;;;;;;;;;;;;;4923265;29;19922;-87
2022/11/23 10:49:56;;;;;;;;;;;;;;;;;;4901805;29;19915;-87
2022/11/23 10:52:42;;;;;;;;;;;;;;;;;;4900803;29;19926;-87
2022/11/23 10:55:29;;;;;;;;;;;;;;;;;;4899143;29;20402;-87
2022/11/23 10:58:15;;;;;;;;;;;;;;;;;;4899939;29;19937;-88
2022/11/23 11:01:02;;;;;;;;;;;;;;;;;;4912470;29;19918;-87
2022/11/23 11:03:48;;;;;;;;;;;;;;;;;;4903734;29;20257;-87
2022/11/23 11:06:35;;;;;;;;;;;;;;;;;;4907327;29;19924;-87
2022/11/23 11:09:23;;;;;;;;;;;;;;;;;;4905723;29;19911;-87
2022/11/23 11:12:09;;;;;;;;;;;;;;;;;;4912105;29;19916;-88
2022/11/23 11:14:56;;;;;;;;;;;;;;;;;;4897609;29;19916;-87
2022/11/23 11:17:59;;;;;;;;;;;;;;;;;;5138166;27;19924;-88
2022/11/23 11:20:46;;;;;;;;;;;;;;;;;;5105665;28;19923;-88
2022/11/23 11:23:32;;;;;;;;;;;;;;;;;;5105569;28;20367;-89
2022/11/23 11:26:19;;;;;;;;;;;;;;;;;;5101250;28;19970;-88
2022/11/23 11:29:06;;;;;;;;;;;;;;;;;;5098880;28;19919;-88
2022/11/23 11:31:53;;;;;;;;;;;;;;;;;;5094015;28;20278;-89
2022/11/23 11:34:39;;;;;;;;;;;;;;;;;;5102996;28;19916;-88
2022/11/23 11:37:26;;;;;;;;;;;;;;;;;;5100904;28;19923;-88
2022/11/23 11:40:12;;;;;;;;;;;;;;;;;;5096977;28;20377;-89
2022/11/23 11:42:59;;;;;;;;;;;;;;;;;;5104919;28;19923;-88
2022/11/23 11:45:45;;;;;;;;;;;;;;;;;;5097769;28;19912;-88
2022/11/23 11:48:32;;;;;;;;;;;;;;;;;;5106577;28;20263;-88
2022/11/23 11:51:18;;;;;;;;;;;;;;;;;;5099213;28;19909;-89
2022/11/23 11:54:05;;;;;;;;;;;;;;;;;;5084115;28;20378;-89
2022/11/23 11:56:51;;;;;;;;;;;;;;;;;;5084070;28;20030;-89
2022/11/23 11:59:41;;;;;;;;;;;;;;;;;;5074978;28;20217;-88
2022/11/23 12:02:28;;;;;;;;;;;;;;;;;;5084006;28;19908;-88
2022/11/23 12:05:14;;;;;;;;;;;;;;;;;;5085171;28;19919;-88
2022/11/23 12:08:00;;;;;;;;;;;;;;;;;;5085312;28;20267;-88
2022/11/23 12:10:47;;;;;;;;;;;;;;;;;;5084827;28;19918;-88
2022/11/23 12:13:33;;;;;;;;;;;;;;;;;;5073708;28;19913;-88
2022/11/23 12:16:20;;;;;;;;;;;;;;;;;;5084426;28;19924;-88
2022/11/23 12:19:06;;;;;;;;;;;;;;;;;;5076102;28;20439;-88
2022/11/23 12:21:53;;;;;;;;;;;;;;;;;;5090237;28;19917;-88
2022/11/23 12:24:39;;;;;;;;;;;;;;;;;;5071873;28;19923;-88
2022/11/23 12:27:26;;;;;;;;;;;;;;;;;;5068589;28;19913;-88
2022/11/23 12:30:13;;;;;;;;;;;;;;;;;;5065215;28;20275;-88
2022/11/23 12:32:59;;;;;;;;;;;;;;;;;;5068534;28;19923;-88
2022/11/23 12:35:46;;;;;;;;;;;;;;;;;;5080211;28;19908;-88
2022/11/23 12:38:32;;;;;;;;;;;;;;;;;;5079197;28;19918;-88
2022/11/23 12:41:19;;;;;;;;;;;;;;;;;;5079734;28;19918;-88
2022/11/23 12:44:05;;;;;;;;;;;;;;;;;;5069292;28;19919;-88
2022/11/23 12:46:52;;;;;;;;;;;;;;;;;;5062386;28;19908;-88
2022/11/23 12:49:38;;;;;;;;;;;;;;;;;;5069754;28;19912;-89
2022/11/23 12:52:25;;;;;;;;;;;;;;;;;;5069596;28;20295;-89
2022/11/23 12:55:11;;;;;;;;;;;;;;;;;;5065753;28;19920;-88
2022/11/23 12:57:58;;;;;;;;;;;;;;;;;;5065684;28;19921;-89
2022/11/23 13:00:44;;;;;;;;;;;;;;;;;;5064391;28;19919;-87
2022/11/23 13:03:31;;;;;;;;;;;;;;;;;;5079125;28;20249;-88
2022/11/23 13:06:21;;;;;;;;;;;;;;;;;;5069814;28;19915;-89
2022/11/23 13:09:07;;;;;;;;;;;;;;;;;;5070442;28;19909;-88
2022/11/23 13:11:57;;;;;;;;;;;;;;;;;;5063629;28;19912;-88
2022/11/23 13:14:46;;;;;;;;;;;;;;;;;;5066798;28;20586;-88
2022/11/23 13:17:33;;;;;;;;;;;;;;;;;;5068353;28;19928;-88
2022/11/23 13:20:19;;;;;;;;;;;;;;;;;;5064302;28;19916;-89
2022/11/23 13:23:06;;;;;;;;;;;;;;;;;;5064358;28;19914;-88
2022/11/23 13:25:52;;;;;;;;;;;;;;;;;;5060570;28;19919;-88
2022/11/23 13:28:39;;;;;;;;;;;;;;;;;;5070601;28;19913;-88
2022/11/23 13:31:25;;;;;;;;;;;;;;;;;;5067751;28;19918;-89
2022/11/23 13:34:12;;;;;;;;;;;;;;;;;;5061349;28;19909;-89
2022/11/23 13:36:58;;;;;;;;;;;;;;;;;;5065266;28;19950;-89
2022/11/23 13:39:45;;;;;;;;;;;;;;;;;;5068860;28;19969;-88
2022/11/23 13:42:34;;;;;;;;;;;;;;;;;;5061262;28;19909;-89
2022/11/23 13:45:20;;;;;;;;;;;;;;;;;;5068748;28;19912;-89
2022/11/23 13:48:07;;;;;;;;;;;;;;;;;;5077636;28;20359;-88
2022/11/23 13:50:53;;;;;;;;;;;;;;;;;;5077508;28;19930;-87
2022/11/23 13:53:40;;;;;;;;;;;;;;;;;;5065185;28;19923;-88
2022/11/23 13:56:26;;;;;;;;;;;;;;;;;;5068754;28;20265;-90
2022/11/23 13:59:13;;;;;;;;;;;;;;;;;;5062062;28;19908;-88
2022/11/23 14:01:59;;;;;;;;;;;;;;;;;;5093374;28;19916;-90
2022/11/23 14:04:47;;;;;;;;;;;;;;;;;;5070975;28;19916;-90
2022/11/23 14:07:33;;;;;;;;;;;;;;;;;;5066212;28;19930;-91
2022/11/23 14:10:20;;;;;;;;;;;;;;;;;;5062352;28;19917;-91
2022/11/23 14:13:06;;;;;;;;;;;;;;;;;;5081961;28;19915;-90
2022/11/23 14:15:53;;;;;;;;;;;;;;;;;;5089413;28;19900;-90
2022/11/23 14:18:39;;;;;;;;;;;;;;;;;;5089821;28;19967;-90
2022/11/23 14:21:28;;;;;;;;;;;;;;;;;;5084766;28;19916;-90
2022/11/23 14:24:15;;;;;;;;;;;;;;;;;;5076752;28;19912;-90
2022/11/23 14:27:01;;;;;;;;;;;;;;;;;;5079424;28;19912;-89
2022/11/23 14:29:48;;;;;;;;;;;;;;;;;;5038462;28;19912;-90
2022/11/23 14:32:34;;;;;;;;;;;;;;;;;;5077419;28;19919;-84
2022/11/23 14:35:21;;;;;;;;;;;;;;;;;;5063385;28;19909;-84
2022/11/23 14:38:07;;;;;;;;;;;;;;;;;;5062629;28;19939;-83
2022/11/23 14:40:53;;;;;;;;;;;;;;;;;;5059916;28;20378;-83
2022/11/23 14:43:40;;;;;;;;;;;;;;;;;;5064641;28;19913;-82
2022/11/23 14:46:26;;;;;;;;;;;;;;;;;;5072765;28;20387;-83
2022/11/23 14:49:13;;;;;;;;;;;;;;;;;;5063766;28;19919;-83
2022/11/23 14:51:59;;;;;;;;;;;;;;;;;;5061181;28;19923;-83
2022/11/23 14:54:46;;;;;;;;;;;;;;;;;;5058408;28;19927;-83
2022/11/23 14:57:32;;;;;;;;;;;;;;;;;;5060650;28;20386;-83
2022/11/23 15:00:19;;;;;;;;;;;;;;;;;;5054618;28;19917;-82
2022/11/23 15:03:05;;;;;;;;;;;;;;;;;;5056173;28;19913;-82
2022/11/23 15:05:52;;;;;;;;;;;;;;;;;;5063936;28;20397;-83
2022/11/23 15:08:38;;;;;;;;;;;;;;;;;;5074350;28;19970;-82
2022/11/23 15:11:25;;;;;;;;;;;;;;;;;;5052135;28;19916;-83
2022/11/23 15:14:11;;;;;;;;;;;;;;;;;;5074774;28;19912;-83
2022/11/23 15:17:01;;;;;;;;;;;;;;;;;;5059632;28;19921;-83
2022/11/23 15:19:47;;;;;;;;;;;;;;;;;;5063957;28;19916;-84
2022/11/23 15:22:34;;;;;;;;;;;;;;;;;;5067378;28;19924;-84
2022/11/23 15:25:20;;;;;;;;;;;;;;;;;;5060902;28;19917;-84
2022/11/23 15:28:07;;;;;;;;;;;;;;;;;;5072919;28;19908;-83
2022/11/23 15:30:53;;;;;;;;;;;;;;;;;;5065223;28;19912;-83
2022/11/23 15:33:40;;;;;;;;;;;;;;;;;;5064398;28;19920;-83
2022/11/23 15:36:26;;;;;;;;;;;;;;;;;;5050836;28;19921;-84
2022/11/23 15:39:13;;;;;;;;;;;;;;;;;;5066751;28;19924;-83
2022/11/23 15:41:59;;;;;;;;;;;;;;;;;;5056524;28;19928;-83
2022/11/23 15:44:46;;;;;;;;;;;;;;;;;;5051292;28;19923;-84
2022/11/23 15:47:33;;;;;;;;;;;;;;;;;;5075979;28;19912;-83
2022/11/23 15:50:19;;;;;;;;;;;;;;;;;;5055723;28;19939;-84
2022/11/23 15:53:06;;;;;;;;;;;;;;;;;;5061983;28;19920;-92
2022/11/23 15:55:52;;;;;;;;;;;;;;;;;;5061191;28;19919;-81
2022/11/23 15:58:39;;;;;;;;;;;;;;;;;;5062037;28;19920;-76
2022/11/23 16:01:25;;;;;;;;;;;;;;;;;;5072279;28;19916;-76
2022/11/23 16:04:12;;;;;;;;;;;;;;;;;;5055083;28;19909;-76
2022/11/23 16:06:59;;;;;;;;;;;;;;;;;;5062031;28;19909;-78
2022/11/23 16:09:48;;;;;;;;;;;;;;;;;;5067710;28;19917;-77
2022/11/23 16:12:35;;;;;;;;;;;;;;;;;;5060679;28;19917;-78
2022/11/23 16:15:21;;;;;;;;;;;;;;;;;;5074558;28;19912;-80
2022/11/23 16:18:07;;;;;;;;;;;;;;;;;;5060052;28;20394;-75
2022/11/23 16:20:54;;;;;;;;;;;;;;;;;;5053627;28;19920;-75
2022/11/23 16:23:42;;;;;;;;;;;;;;;;;;5057259;28;19920;-76
2022/11/23 16:26:28;;;;;;;;;;;;;;;;;;5064786;28;19908;-76
2022/11/23 16:29:15;;;;;;;;;;;;;;;;;;5066711;28;19916;-75
2022/11/23 16:32:01;;;;;;;;;;;;;;;;;;5068755;28;19912;-76
2022/11/23 16:34:48;;;;;;;;;;;;;;;;;;5069233;28;19912;-76
2022/11/23 16:37:34;;;;;;;;;;;;;;;;;;5064803;28;19932;-76
2022/11/23 16:40:21;;;;;;;;;;;;;;;;;;5064449;28;20556;-76
2022/11/23 16:43:07;;;;;;;;;;;;;;;;;;5058111;28;19908;-76
2022/11/23 16:45:54;;;;;;;;;;;;;;;;;;5068266;28;20359;-76
2022/11/23 16:48:40;;;;;;;;;;;;;;;;;;5066437;28;19917;-76
2022/11/23 16:51:27;;;;;;;;;;;;;;;;;;5060020;28;19908;-76
2022/11/23 16:54:13;;;;;;;;;;;;;;;;;;5051656;28;19908;-75
2022/11/23 16:57:00;;;;;;;;;;;;;;;;;;5063008;28;19920;-75
2022/11/23 16:59:46;;;;;;;;;;;;;;;;;;5054757;28;19912;-75
2022/11/23 17:02:33;;;;;;;;;;;;;;;;;;5068419;28;19919;-76
2022/11/23 17:05:19;;;;;;;;;;;;;;;;;;5056526;28;20411;-75
2022/11/23 17:08:06;;;;;;;;;;;;;;;;;;5052245;28;19913;-76
2022/11/23 17:10:52;;;;;;;;;;;;;;;;;;5068162;28;19908;-75
2022/11/23 17:13:39;;;;;;;;;;;;;;;;;;5066058;28;19908;-75
2022/11/23 17:16:25;;;;;;;;;;;;;;;;;;5055778;28;19928;-76
2022/11/23 17:19:12;;;;;;;;;;;;;;;;;;5056380;28;19909;-76
2022/11/23 17:21:58;;;;;;;;;;;;;;;;;;5065838;28;19939;-76
2022/11/23 17:24:45;;;;;;;;;;;;;;;;;;5076166;28;19909;-76
2022/11/23 17:27:31;;;;;;;;;;;;;;;;;;5054925;28;20356;-76
2022/11/23 17:30:18;;;;;;;;;;;;;;;;;;5057661;28;19921;-76
2022/11/23 17:33:04;;;;;;;;;;;;;;;;;;5071581;28;19913;-75
2022/11/23 17:35:51;;;;;;;;;;;;;;;;;;5065117;28;19927;-75
2022/11/23 17:38:37;;;;;;;;;;;;;;;;;;5051361;28;19924;-75
2022/11/23 17:41:24;;;;;;;;;;;;;;;;;;5054117;28;19917;-75
2022/11/23 17:44:10;;;;;;;;;;;;;;;;;;5068390;28;19917;-75
2022/11/23 17:46:57;;;;;;;;;;;;;;;;;;5062167;28;19916;-76
2022/11/23 17:49:43;;;;;;;;;;;;;;;;;;5051956;28;19913;-75
2022/11/23 17:52:30;;;;;;;;;;;;;;;;;;5076321;28;20568;-76
2022/11/23 17:55:16;;;;;;;;;;;;;;;;;;5059398;28;19923;-76
2022/11/23 17:58:03;;;;;;;;;;;;;;;;;;5061397;28;19927;-76
2022/11/23 18:00:49;;;;;;;;;;;;;;;;;;5060968;28;19916;-77
2022/11/23 18:03:36;;;;;;;;;;;;;;;;;;5043017;28;20327;-78
2022/11/23 18:06:22;;;;;;;;;;;;;;;;;;5058602;28;19934;-77
2022/11/23 18:09:10;;;;;;;;;;;;;;;;;;5051187;28;20596;-78
2022/11/23 18:11:57;;;;;;;;;;;;;;;;;;5056304;28;20284;-78
2022/11/23 18:14:43;;;;;;;;;;;;;;;;;;5050259;28;19932;-78
2022/11/23 18:17:30;;;;;;;;;;;;;;;;;;5064327;28;19924;-79
2022/11/23 18:20:16;;;;;;;;;;;;;;;;;;5054101;28;19919;-78
2022/11/23 18:23:03;;;;;;;;;;;;;;;;;;5063273;28;19915;-78
2022/11/23 18:25:49;;;;;;;;;;;;;;;;;;5055214;28;19939;-78
2022/11/23 18:28:36;;;;;;;;;;;;;;;;;;5063734;28;20295;-77
2022/11/23 18:31:22;;;;;;;;;;;;;;;;;;5066686;28;19919;-79
2022/11/23 18:34:09;;;;;;;;;;;;;;;;;;5059696;28;19931;-77
2022/11/23 18:36:55;;;;;;;;;;;;;;;;;;5047874;28;20047;-79
2022/11/23 18:39:42;;;;;;;;;;;;;;;;;;5052408;28;19912;-78
2022/11/23 18:42:28;;;;;;;;;;;;;;;;;;5056116;28;20386;-78
2022/11/23 18:45:15;;;;;;;;;;;;;;;;;;5056189;28;19913;-78
2022/11/23 18:48:01;;;;;;;;;;;;;;;;;;5059949;28;19913;-78
2022/11/23 18:50:48;;;;;;;;;;;;;;;;;;5060069;28;19917;-78
2022/11/23 18:53:34;;;;;;;;;;;;;;;;;;5059142;28;19912;-78
2022/11/23 18:56:21;;;;;;;;;;;;;;;;;;5052571;28;19915;-78